Aviation Digital Data Service (ADDS)

Output produced by METARs form (2321 UTC 20 January 2019)
found at http://www.aviationweather.gov/metar/data/
 
Forecast for: MSLP (EL SALVADOR INT , SV)
Text: TAF MSLP 202125Z 2100/2124 02015G28KT CAVOK TX36/2118Z TN20/2110Z
Forecast period: 0000 UTC 21 January 2019 to 0000 UTC 22 January 2019
Forecast type: FROM: standard forecast or significant change
Winds: from the NNE (20 degrees) at 17 MPH (15 knots; 7.7 m/s)
gusting to 32 MPH (28 knots; 14.4 m/s)
Visibility: 6 or more miles 10+ km)
Ceiling: unknown
Clouds: missing
Weather: no significant weather forecast for this period